createdAt,value
2023-02-19T00:00:39.331Z,2.13
2023-02-19T00:03:27.643Z,2.60
2023-02-19T00:06:15.977Z,2.35
2023-02-19T00:09:05.090Z,3.25
2023-02-19T00:11:53.310Z,2.70
2023-02-19T00:14:41.524Z,3.38
2023-02-19T00:17:32.145Z,2.63
2023-02-19T00:20:21.325Z,3.08
2023-02-19T00:23:09.552Z,3.47
2023-02-19T00:26:06.005Z,2.88
2023-02-19T00:29:02.487Z,3.15
2023-02-19T00:31:51.206Z,3.50
2023-02-19T00:34:40.895Z,3.38
2023-02-19T00:37:29.154Z,3.33
2023-02-19T00:40:17.531Z,2.83
2023-02-19T00:43:05.819Z,2.88
2023-02-19T00:45:54.009Z,3.03
2023-02-19T00:48:42.370Z,2.65
2023-02-19T00:51:34.869Z,3.83
2023-02-19T00:54:23.563Z,3.25
2023-02-19T00:57:11.804Z,2.88
2023-02-19T01:00:00.004Z,3.55
2023-02-19T01:02:48.310Z,2.75
2023-02-19T01:05:36.514Z,3.10
2023-02-19T01:08:26.180Z,2.75
2023-02-19T01:11:15.194Z,2.70
2023-02-19T01:14:04.992Z,3.10
2023-02-19T01:16:53.319Z,3.03
2023-02-19T01:19:41.567Z,3.00
2023-02-19T01:22:29.786Z,3.33
2023-02-19T01:25:19.582Z,3.30
2023-02-19T01:28:07.892Z,3.28
2023-02-19T01:30:56.145Z,3.17
2023-02-19T01:33:46.850Z,3.85
2023-02-19T01:36:37.052Z,3.33
2023-02-19T01:39:25.241Z,3.47
2023-02-19T01:42:17.571Z,3.72
2023-02-19T01:45:28.583Z,4.20
2023-02-19T01:48:20.702Z,3.95
2023-02-19T01:51:13.864Z,3.92
2023-02-19T01:54:06.004Z,4.10
2023-02-19T01:56:56.541Z,3.97
2023-02-19T01:59:47.104Z,4.80
2023-02-19T02:02:35.530Z,4.30
2023-02-19T02:05:33.915Z,4.10
2023-02-19T02:08:54.071Z,4.55
2023-02-19T02:11:46.182Z,3.92
2023-02-19T02:14:37.260Z,5.00
2023-02-19T02:20:32.909Z,4.43
2023-02-19T02:23:31.045Z,5.80
2023-02-19T02:26:36.699Z,5.32
2023-02-19T02:30:07.605Z,6.05
2023-02-19T02:33:01.041Z,5.68
2023-02-19T02:35:53.804Z,5.40
2023-02-19T02:38:45.016Z,5.78
2023-02-19T02:41:34.359Z,5.80
2023-02-19T02:44:22.582Z,6.28
2023-02-19T02:47:32.427Z,6.32
2023-02-19T02:50:25.951Z,5.55
2023-02-19T02:53:36.284Z,7.03
2023-02-19T02:56:26.382Z,7.47
2023-02-19T02:59:16.666Z,6.73
2023-02-19T03:02:14.446Z,6.30
2023-02-19T03:05:25.382Z,6.78
2023-02-19T03:08:17.340Z,6.50
2023-02-19T03:11:21.512Z,6.97
2023-02-19T03:14:31.448Z,7.40
2023-02-19T03:17:41.054Z,6.97
2023-02-19T03:20:33.543Z,7.32
2023-02-19T03:23:45.325Z,7.45
2023-02-19T03:26:34.040Z,7.82
2023-02-19T03:29:25.879Z,6.88
2023-02-19T03:32:19.125Z,6.35
2023-02-19T03:35:12.533Z,5.97
2023-02-19T03:38:07.184Z,6.55
2023-02-19T03:41:00.879Z,5.40
2023-02-19T03:43:53.702Z,6.30
2023-02-19T03:46:49.081Z,5.40
2023-02-19T03:49:46.709Z,1.90
2023-02-19T03:52:42.779Z,1.42
2023-02-19T03:55:37.987Z,1.73
2023-02-19T03:58:31.263Z,2.30
2023-02-19T04:01:25.741Z,2.63
2023-02-19T04:04:19.314Z,3.85
2023-02-19T04:07:08.292Z,2.95
2023-02-19T04:09:56.947Z,4.13
2023-02-19T04:12:52.557Z,3.92
2023-02-19T04:15:43.967Z,3.45
2023-02-19T04:18:37.257Z,3.20
2023-02-19T04:21:25.790Z,3.50
2023-02-19T04:24:18.834Z,3.72
2023-02-19T04:27:09.872Z,3.40
2023-02-19T04:29:59.454Z,3.42
2023-02-19T04:32:47.669Z,3.67
2023-02-19T04:35:35.884Z,4.25
2023-02-19T04:38:24.263Z,4.00
2023-02-19T04:41:12.781Z,3.95
2023-02-19T04:44:01.178Z,4.03
2023-02-19T04:46:50.757Z,3.75
2023-02-19T04:49:38.997Z,3.53
2023-02-19T04:52:27.259Z,2.42
2023-02-19T04:55:15.549Z,3.88
2023-02-19T04:58:03.771Z,2.88
2023-02-19T05:00:54.846Z,2.58
2023-02-19T05:06:33.243Z,2.78
2023-02-19T05:09:21.687Z,3.10
2023-02-19T05:12:09.920Z,3.33
2023-02-19T05:14:58.286Z,4.28
2023-02-19T05:17:46.530Z,3.55
2023-02-19T05:20:36.088Z,3.53
2023-02-19T05:23:24.339Z,4.15
2023-02-19T05:26:17.860Z,3.95
2023-02-19T05:29:06.100Z,3.85
2023-02-19T05:31:54.456Z,3.88
2023-02-19T05:34:42.790Z,3.92
2023-02-19T05:37:32.339Z,4.38
2023-02-19T05:40:20.552Z,3.60
2023-02-19T05:43:09.232Z,4.70
2023-02-19T05:45:59.508Z,3.80
2023-02-19T05:48:48.088Z,3.70
2023-02-19T05:51:36.321Z,3.38
2023-02-19T05:54:25.865Z,3.65
2023-02-19T05:57:14.062Z,3.63
2023-02-19T06:00:02.229Z,3.58
2023-02-19T06:02:50.459Z,3.08
2023-02-19T06:05:38.709Z,3.25
2023-02-19T06:08:26.922Z,2.45
2023-02-19T06:11:16.739Z,3.10
2023-02-19T06:14:05.100Z,2.45
2023-02-19T06:16:53.290Z,2.42
2023-02-19T06:19:41.575Z,2.78
2023-02-19T06:22:29.893Z,2.65
2023-02-19T06:25:18.256Z,2.60
2023-02-19T06:28:09.415Z,2.72
2023-02-19T06:30:59.823Z,2.58
2023-02-19T06:33:48.283Z,4.22
2023-02-19T06:36:36.547Z,2.70
2023-02-19T06:39:24.799Z,2.80
2023-02-19T06:42:12.978Z,2.20
2023-02-19T06:45:02.551Z,2.10
2023-02-19T06:47:50.736Z,2.92
2023-02-19T06:50:38.964Z,3.35
2023-02-19T06:53:27.597Z,2.55
2023-02-19T06:56:27.423Z,3.20
2023-02-19T06:59:17.792Z,3.90
2023-02-19T07:02:07.405Z,3.67
2023-02-19T07:04:55.589Z,4.03
2023-02-19T07:07:46.110Z,3.80
2023-02-19T07:10:34.296Z,4.03
2023-02-19T07:13:22.546Z,8.57
2023-02-19T07:16:11.554Z,2.78
2023-02-19T07:19:01.955Z,2.42
2023-02-19T07:21:50.254Z,2.20
2023-02-19T07:24:38.549Z,2.95
2023-02-19T07:27:26.748Z,2.10
2023-02-19T07:30:15.158Z,2.05
2023-02-19T07:33:03.515Z,2.42
2023-02-19T07:35:53.223Z,2.30
2023-02-19T07:38:41.515Z,2.10
2023-02-19T07:41:29.811Z,1.80
2023-02-19T07:44:18.191Z,1.92
2023-02-19T07:47:06.396Z,2.25
2023-02-19T07:49:58.609Z,1.90
2023-02-19T07:52:48.141Z,1.92
2023-02-19T07:55:36.548Z,1.95
2023-02-19T07:58:24.760Z,2.05
2023-02-19T08:01:16.253Z,3.10
2023-02-19T08:04:03.544Z,3.25
2023-02-19T08:06:53.709Z,3.13
2023-02-19T08:09:43.263Z,3.20
2023-02-19T08:12:49.241Z,2.85
2023-02-19T08:15:37.467Z,2.60
2023-02-19T08:18:27.080Z,2.22
2023-02-19T08:21:18.152Z,2.60
2023-02-19T08:24:07.077Z,3.13
2023-02-19T08:26:56.684Z,2.72
2023-02-19T08:29:45.004Z,3.08
2023-02-19T08:32:33.301Z,2.42
2023-02-19T08:35:21.689Z,2.20
2023-02-19T08:38:10.955Z,3.13
2023-02-19T08:40:59.313Z,2.55
2023-02-19T08:43:48.880Z,1.65
2023-02-19T08:46:37.161Z,2.03
2023-02-19T08:49:27.388Z,2.03
2023-02-19T08:52:15.627Z,1.50
2023-02-19T08:55:04.283Z,1.73
2023-02-19T08:57:53.042Z,1.90
2023-02-19T09:00:42.590Z,1.75
2023-02-19T09:03:30.839Z,1.88
2023-02-19T09:06:21.187Z,1.85
2023-02-19T09:09:10.060Z,1.88
2023-02-19T09:11:58.238Z,1.73
2023-02-19T09:14:46.717Z,1.30
2023-02-19T09:17:36.313Z,1.30
2023-02-19T09:20:24.530Z,1.10
2023-02-19T09:23:12.757Z,1.23
2023-02-19T09:26:03.247Z,1.40
2023-02-19T09:28:51.476Z,1.33
2023-02-19T09:31:39.804Z,2.13
2023-02-19T09:34:30.338Z,1.48
2023-02-19T09:37:18.576Z,1.38
2023-02-19T09:40:07.397Z,1.13
2023-02-19T09:42:55.635Z,1.48
2023-02-19T09:45:44.209Z,1.30
2023-02-19T09:48:33.034Z,1.50
2023-02-19T09:51:23.903Z,0.90
2023-02-19T09:54:18.985Z,1.10
2023-02-19T09:57:12.524Z,1.25
2023-02-19T10:00:05.662Z,1.63
2023-02-19T10:02:55.222Z,1.27
2023-02-19T10:05:43.771Z,1.17
2023-02-19T10:08:37.785Z,1.02
2023-02-19T10:11:27.377Z,1.05
2023-02-19T10:14:20.270Z,1.38
2023-02-19T10:17:15.062Z,1.13
2023-02-19T10:20:04.644Z,1.88
2023-02-19T10:22:56.637Z,1.83
2023-02-19T10:25:50.088Z,1.55
2023-02-19T10:28:38.873Z,1.60
2023-02-19T10:31:27.437Z,1.70
2023-02-19T10:34:22.252Z,1.30
2023-02-19T10:37:15.156Z,1.10
2023-02-19T10:40:03.834Z,1.60
2023-02-19T10:42:55.616Z,1.00
2023-02-19T10:45:49.136Z,1.40
2023-02-19T10:48:41.907Z,1.30
2023-02-19T10:51:35.990Z,0.80
2023-02-19T10:54:29.762Z,0.73
2023-02-19T10:57:34.731Z,1.08
2023-02-19T11:00:26.986Z,0.85
2023-02-19T11:03:21.722Z,0.93
2023-02-19T11:06:12.678Z,0.80
2023-02-19T11:09:02.092Z,0.80
2023-02-19T11:11:52.673Z,0.82
2023-02-19T11:14:44.441Z,1.05
2023-02-19T11:17:34.415Z,1.02
2023-02-19T11:20:22.809Z,0.90
2023-02-19T11:23:16.912Z,0.80
2023-02-19T11:26:07.936Z,1.02
2023-02-19T11:29:01.046Z,0.68
2023-02-19T11:31:49.334Z,0.85
2023-02-19T11:34:39.290Z,2.05
2023-02-19T11:37:27.494Z,0.68
2023-02-19T11:40:15.800Z,0.80
2023-02-19T11:43:11.638Z,0.70
2023-02-19T11:46:05.689Z,0.95
2023-02-19T11:48:57.907Z,0.90
2023-02-19T11:52:01.152Z,0.70
2023-02-19T11:54:55.005Z,0.60
2023-02-19T11:57:47.342Z,0.82
2023-02-19T12:00:45.780Z,0.70
2023-02-19T12:04:03.088Z,0.90
2023-02-19T12:07:04.597Z,0.50
2023-02-19T12:10:04.272Z,0.60
2023-02-19T12:13:00.892Z,1.05
2023-02-19T12:16:14.898Z,0.80
2023-02-19T12:19:39.265Z,1.10
2023-02-19T12:22:31.693Z,1.05
2023-02-19T12:25:33.426Z,0.47
2023-02-19T12:28:36.150Z,0.60
2023-02-19T12:31:57.121Z,0.98
2023-02-19T12:35:09.673Z,0.60
2023-02-19T12:38:09.915Z,0.73
2023-02-19T12:41:13.219Z,1.03
2023-02-19T12:44:06.664Z,0.50
2023-02-19T12:47:01.311Z,0.60
2023-02-19T12:49:59.589Z,0.75
2023-02-19T12:52:51.745Z,0.57
2023-02-19T12:55:44.181Z,0.60
2023-02-19T12:58:43.699Z,0.75
2023-02-19T13:01:38.600Z,0.73
2023-02-19T13:04:35.364Z,0.63
2023-02-19T13:07:29.323Z,0.82
2023-02-19T13:10:26.076Z,0.80
2023-02-19T13:13:22.794Z,1.23
2023-02-19T13:16:18.597Z,0.70
2023-02-19T13:19:07.186Z,0.70
2023-02-19T13:22:22.041Z,0.60
2023-02-19T13:25:12.153Z,0.60
2023-02-19T13:28:11.873Z,0.60
2023-02-19T13:31:21.955Z,0.85
2023-02-19T13:34:21.394Z,1.20
2023-02-19T13:37:11.240Z,0.70
2023-02-19T13:40:03.977Z,0.60
2023-02-19T13:42:57.859Z,0.93
2023-02-19T13:45:47.530Z,1.15
2023-02-19T13:48:38.718Z,0.82
2023-02-19T13:51:48.909Z,0.60
2023-02-19T13:54:40.258Z,1.00
2023-02-19T13:57:29.708Z,0.68
2023-02-19T14:00:49.451Z,0.90
2023-02-19T14:03:50.856Z,0.45
2023-02-19T14:07:12.577Z,0.68
2023-02-19T14:10:01.853Z,0.98
2023-02-19T14:12:50.097Z,1.00
2023-02-19T14:15:44.801Z,1.30
2023-02-19T14:18:45.633Z,1.10
2023-02-19T14:21:37.632Z,0.57
2023-02-19T14:24:26.021Z,0.75
2023-02-19T14:27:14.431Z,0.60
2023-02-19T14:30:03.300Z,0.50
2023-02-19T14:33:02.805Z,0.60
2023-02-19T14:36:03.569Z,0.77
2023-02-19T14:38:54.520Z,0.60
2023-02-19T14:44:47.952Z,0.80
2023-02-19T14:47:38.733Z,0.65
2023-02-19T14:50:30.901Z,0.55
2023-02-19T14:53:23.428Z,0.50
2023-02-19T14:56:21.773Z,0.52
2023-02-19T14:59:23.805Z,0.95
2023-02-19T15:02:17.252Z,0.40
2023-02-19T15:05:16.386Z,0.70
2023-02-19T15:08:09.812Z,0.80
2023-02-19T15:11:00.183Z,0.65
2023-02-19T15:13:53.264Z,0.68
2023-02-19T15:16:41.542Z,0.55
2023-02-19T15:19:33.116Z,0.93
2023-02-19T15:22:23.510Z,0.93
2023-02-19T15:25:18.112Z,0.75
2023-02-19T15:28:34.326Z,0.80
2023-02-19T15:31:22.722Z,1.23
2023-02-19T15:34:18.397Z,1.00
2023-02-19T15:37:09.201Z,0.85
2023-02-19T15:39:59.390Z,0.75
2023-02-19T15:42:48.852Z,0.70
2023-02-19T15:45:42.481Z,0.50
2023-02-19T15:48:36.670Z,0.90
2023-02-19T15:51:28.182Z,1.25
2023-02-19T15:54:27.116Z,1.00
2023-02-19T15:57:20.101Z,0.98
2023-02-19T16:00:15.617Z,0.93
2023-02-19T16:03:06.487Z,1.00
2023-02-19T16:06:02.360Z,1.00
2023-02-19T16:09:02.754Z,0.80
2023-02-19T16:11:53.028Z,0.80
2023-02-19T16:14:41.330Z,1.00
2023-02-19T16:17:29.613Z,1.05
2023-02-19T16:20:23.301Z,1.02
2023-02-19T16:23:15.097Z,0.68
2023-02-19T16:26:04.063Z,1.20
2023-02-19T16:28:54.011Z,0.98
2023-02-19T16:31:49.874Z,1.38
2023-02-19T16:34:43.023Z,1.00
2023-02-19T16:37:35.435Z,1.10
2023-02-19T16:41:03.133Z,0.90
2023-02-19T16:43:51.335Z,0.88
2023-02-19T16:46:40.940Z,1.05
2023-02-19T16:49:29.220Z,1.20
2023-02-19T16:52:17.879Z,1.15
2023-02-19T16:55:14.478Z,1.27
2023-02-19T16:58:03.067Z,1.10
2023-02-19T17:00:51.318Z,1.10
2023-02-19T17:03:40.194Z,1.70
2023-02-19T17:06:28.652Z,1.08
2023-02-19T17:09:16.869Z,1.17
2023-02-19T17:12:10.522Z,1.52
2023-02-19T17:14:58.743Z,1.58
2023-02-19T17:17:47.128Z,1.80
2023-02-19T17:20:37.239Z,1.42
2023-02-19T17:23:25.496Z,1.17
2023-02-19T17:26:15.497Z,1.00
2023-02-19T17:29:06.909Z,1.30
2023-02-19T17:31:55.162Z,1.23
2023-02-19T17:34:43.522Z,1.67
2023-02-19T17:37:31.718Z,1.05
2023-02-19T17:40:32.239Z,1.13
2023-02-19T17:43:21.583Z,1.35
2023-02-19T17:46:15.474Z,1.20
2023-02-19T17:49:03.836Z,1.67
2023-02-19T17:51:52.011Z,2.20
2023-02-19T17:54:40.416Z,1.88
2023-02-19T17:57:33.426Z,2.15
2023-02-19T18:00:23.550Z,1.98
2023-02-19T18:03:13.259Z,1.80
2023-02-19T18:06:01.511Z,2.22
2023-02-19T18:08:51.298Z,2.10
2023-02-19T18:11:39.656Z,2.13
2023-02-19T18:14:29.032Z,1.95
2023-02-19T18:17:17.244Z,1.80
2023-02-19T18:20:08.340Z,2.33
2023-02-19T18:25:45.615Z,2.00
2023-02-19T18:28:35.570Z,2.38
2023-02-19T18:31:24.219Z,1.90
2023-02-19T18:34:18.295Z,1.90
2023-02-19T18:37:07.982Z,1.77
2023-02-19T18:39:56.222Z,1.92
2023-02-19T18:42:44.442Z,1.58
2023-02-19T18:45:35.335Z,1.40
2023-02-19T18:48:23.759Z,1.65
2023-02-19T18:51:12.984Z,1.60
2023-02-19T18:54:04.063Z,2.05
2023-02-19T18:56:52.490Z,1.58
2023-02-19T18:59:41.877Z,2.10
2023-02-19T19:02:42.690Z,2.40
2023-02-19T19:05:36.794Z,2.10
2023-02-19T19:08:25.352Z,2.30
2023-02-19T19:11:14.959Z,2.15
2023-02-19T19:14:04.254Z,2.15
2023-02-19T19:16:52.667Z,2.10
2023-02-19T19:19:41.303Z,2.15
2023-02-19T19:22:29.518Z,2.38
2023-02-19T19:25:18.121Z,2.78
2023-02-19T19:28:07.769Z,2.08
2023-02-19T19:30:56.044Z,2.22
2023-02-19T19:33:46.552Z,2.13
2023-02-19T19:36:35.167Z,2.60
2023-02-19T19:39:23.417Z,2.05
2023-02-19T19:42:11.676Z,2.30
2023-02-19T19:45:01.555Z,2.30
2023-02-19T19:47:50.013Z,2.25
2023-02-19T19:50:38.372Z,2.38
2023-02-19T19:53:26.631Z,2.45
2023-02-19T19:56:14.937Z,2.33
2023-02-19T19:59:03.170Z,2.28
2023-02-19T20:01:54.725Z,2.40
2023-02-19T20:04:45.103Z,3.03
2023-02-19T20:07:33.902Z,2.97
2023-02-19T20:10:23.162Z,2.80
2023-02-19T20:13:11.379Z,2.60
2023-02-19T20:15:59.626Z,2.85
2023-02-19T20:18:49.203Z,2.58
2023-02-19T20:21:37.419Z,2.63
2023-02-19T20:24:28.689Z,2.60
2023-02-19T20:30:05.940Z,2.45
2023-02-19T20:32:54.533Z,2.50
2023-02-19T20:35:44.095Z,2.95
2023-02-19T20:38:32.323Z,2.55
2023-02-19T20:41:20.677Z,2.67
2023-02-19T20:44:08.905Z,2.60
2023-02-19T20:46:58.883Z,3.70
2023-02-19T20:49:47.282Z,3.30
2023-02-19T20:52:36.934Z,3.40
2023-02-19T20:55:26.010Z,2.72
2023-02-19T20:58:14.252Z,3.28
2023-02-19T21:01:02.986Z,2.63
2023-02-19T21:03:51.160Z,3.30
2023-02-19T21:06:39.410Z,3.08
2023-02-19T21:09:28.959Z,3.30
2023-02-19T21:12:17.215Z,2.55
2023-02-19T21:15:06.254Z,3.60
2023-02-19T21:17:54.480Z,3.60
2023-02-19T21:20:42.697Z,4.15
2023-02-19T21:23:30.963Z,6.32
2023-02-19T21:26:20.608Z,8.30
2023-02-19T21:29:10.698Z,8.93
2023-02-19T21:31:59.360Z,5.57
2023-02-19T21:34:47.611Z,3.60
2023-02-19T21:37:35.864Z,3.70
2023-02-19T21:40:25.279Z,3.40
2023-02-19T21:43:14.880Z,3.47
2023-02-19T21:46:03.171Z,3.72
2023-02-19T21:48:52.066Z,3.58
2023-02-19T21:51:41.696Z,3.15
2023-02-19T21:54:30.047Z,3.90
2023-02-19T21:57:18.244Z,3.47
2023-02-19T22:00:09.221Z,3.33
2023-02-19T22:02:57.519Z,3.40
2023-02-19T22:05:45.784Z,3.17
2023-02-19T22:08:34.002Z,2.97
2023-02-19T22:11:22.303Z,3.72
2023-02-19T22:14:10.597Z,3.42
2023-02-19T22:17:00.136Z,3.60
2023-02-19T22:19:48.474Z,3.92
2023-02-19T22:22:36.656Z,3.80
2023-02-19T22:25:24.894Z,4.60
2023-02-19T22:28:13.161Z,4.13
2023-02-19T22:31:01.397Z,3.45
2023-02-19T22:33:51.564Z,3.92
2023-02-19T22:36:40.391Z,4.40
2023-02-19T22:39:28.681Z,4.95
2023-02-19T22:42:17.050Z,4.15
2023-02-19T22:45:05.764Z,4.22
2023-02-19T22:47:56.264Z,5.05
2023-02-19T22:50:45.767Z,4.65
2023-02-19T22:53:34.013Z,5.80
2023-02-19T22:56:23.787Z,4.63
2023-02-19T22:59:12.097Z,4.45
2023-02-19T23:02:00.324Z,4.90
2023-02-19T23:04:48.567Z,4.43
2023-02-19T23:07:38.120Z,4.28
2023-02-19T23:10:27.089Z,4.40
2023-02-19T23:13:15.336Z,4.45
2023-02-19T23:16:04.687Z,4.13
2023-02-19T23:18:53.095Z,3.97
2023-02-19T23:21:42.473Z,4.32
2023-02-19T23:24:32.591Z,4.65
2023-02-19T23:27:20.808Z,4.78
2023-02-19T23:30:09.873Z,4.72
2023-02-19T23:32:58.114Z,4.50
2023-02-19T23:35:46.360Z,4.18
2023-02-19T23:38:34.654Z,5.57
2023-02-19T23:41:24.192Z,4.55
2023-02-19T23:44:12.423Z,4.78
2023-02-19T23:47:00.914Z,4.82
2023-02-19T23:49:49.143Z,4.70
2023-02-19T23:52:37.355Z,4.78
2023-02-19T23:55:25.832Z,4.28
2023-02-19T23:58:15.706Z,4.68
